sensor_id;sensor_type;location;lat;lon;timestamp;P1;durP1;ratioP1;P2;durP2;ratioP2
4812;SDS011;2420;51.202;8.698;2022-08-03T00:01:21;5.07;;;3.40;;
4812;SDS011;2420;51.202;8.698;2022-08-03T00:03:47;3.70;;;3.30;;
4812;SDS011;2420;51.202;8.698;2022-08-03T00:06:12;4.90;;;3.28;;
4812;SDS011;2420;51.202;8.698;2022-08-03T00:08:38;3.55;;;3.25;;
4812;SDS011;2420;51.202;8.698;2022-08-03T00:11:03;4.05;;;3.50;;
4812;SDS011;2420;51.202;8.698;2022-08-03T00:13:31;3.63;;;3.33;;
4812;SDS011;2420;51.202;8.698;2022-08-03T00:15:57;4.47;;;3.72;;
4812;SDS011;2420;51.202;8.698;2022-08-03T00:18:22;4.35;;;3.45;;
4812;SDS011;2420;51.202;8.698;2022-08-03T00:20:48;6.65;;;3.50;;
4812;SDS011;2420;51.202;8.698;2022-08-03T00:23:13;4.70;;;3.72;;
4812;SDS011;2420;51.202;8.698;2022-08-03T00:25:39;4.35;;;3.63;;
4812;SDS011;2420;51.202;8.698;2022-08-03T00:28:05;4.07;;;3.67;;
4812;SDS011;2420;51.202;8.698;2022-08-03T00:30:31;5.28;;;3.92;;
4812;SDS011;2420;51.202;8.698;2022-08-03T00:32:57;5.32;;;3.90;;
4812;SDS011;2420;51.202;8.698;2022-08-03T00:35:23;4.45;;;4.05;;
4812;SDS011;2420;51.202;8.698;2022-08-03T00:37:49;7.20;;;4.57;;
4812;SDS011;2420;51.202;8.698;2022-08-03T00:40:15;4.43;;;4.03;;
4812;SDS011;2420;51.202;8.698;2022-08-03T00:42:49;6.88;;;3.88;;
4812;SDS011;2420;51.202;8.698;2022-08-03T00:45:18;4.78;;;4.38;;
4812;SDS011;2420;51.202;8.698;2022-08-03T00:47:44;6.13;;;4.80;;
4812;SDS011;2420;51.202;8.698;2022-08-03T00:50:10;5.78;;;4.43;;
4812;SDS011;2420;51.202;8.698;2022-08-03T00:52:36;5.88;;;4.65;;
4812;SDS011;2420;51.202;8.698;2022-08-03T00:55:02;4.97;;;4.07;;
4812;SDS011;2420;51.202;8.698;2022-08-03T00:57:28;4.65;;;4.00;;
4812;SDS011;2420;51.202;8.698;2022-08-03T00:59:55;4.05;;;3.65;;
4812;SDS011;2420;51.202;8.698;2022-08-03T01:02:21;4.20;;;3.80;;
4812;SDS011;2420;51.202;8.698;2022-08-03T01:04:46;3.97;;;3.58;;
4812;SDS011;2420;51.202;8.698;2022-08-03T01:13:16;3.90;;;3.50;;
4812;SDS011;2420;51.202;8.698;2022-08-03T01:18:40;4.32;;;3.90;;
4812;SDS011;2420;51.202;8.698;2022-08-03T01:21:23;4.30;;;3.90;;
4812;SDS011;2420;51.202;8.698;2022-08-03T01:27:25;4.18;;;3.80;;
4812;SDS011;2420;51.202;8.698;2022-08-03T01:35:10;4.35;;;3.70;;
4812;SDS011;2420;51.202;8.698;2022-08-03T01:37:41;7.32;;;3.90;;
4812;SDS011;2420;51.202;8.698;2022-08-03T01:40:12;4.10;;;3.67;;
4812;SDS011;2420;51.202;8.698;2022-08-03T01:42:40;3.85;;;3.55;;
4812;SDS011;2420;51.202;8.698;2022-08-03T01:45:07;4.63;;;3.80;;
4812;SDS011;2420;51.202;8.698;2022-08-03T01:47:36;4.45;;;4.03;;
4812;SDS011;2420;51.202;8.698;2022-08-03T01:50:03;4.13;;;3.72;;
4812;SDS011;2420;51.202;8.698;2022-08-03T01:52:31;5.05;;;3.95;;
4812;SDS011;2420;51.202;8.698;2022-08-03T01:54:57;4.15;;;3.75;;
4812;SDS011;2420;51.202;8.698;2022-08-03T01:57:23;4.70;;;4.05;;
4812;SDS011;2420;51.202;8.698;2022-08-03T01:59:52;8.88;;;4.10;;
4812;SDS011;2420;51.202;8.698;2022-08-03T02:02:20;4.72;;;3.83;;
4812;SDS011;2420;51.202;8.698;2022-08-03T02:04:48;4.95;;;4.10;;
4812;SDS011;2420;51.202;8.698;2022-08-03T02:07:15;4.25;;;3.85;;
4812;SDS011;2420;51.202;8.698;2022-08-03T02:09:42;4.63;;;3.85;;
4812;SDS011;2420;51.202;8.698;2022-08-03T02:12:11;4.75;;;3.90;;
4812;SDS011;2420;51.202;8.698;2022-08-03T02:14:38;4.43;;;4.03;;
4812;SDS011;2420;51.202;8.698;2022-08-03T02:17:07;5.40;;;3.97;;
4812;SDS011;2420;51.202;8.698;2022-08-03T02:19:34;4.40;;;4.00;;
4812;SDS011;2420;51.202;8.698;2022-08-03T02:22:00;4.65;;;3.85;;
4812;SDS011;2420;51.202;8.698;2022-08-03T02:24:28;4.97;;;3.95;;
4812;SDS011;2420;51.202;8.698;2022-08-03T02:26:55;4.28;;;3.88;;
4812;SDS011;2420;51.202;8.698;2022-08-03T02:29:23;5.68;;;4.30;;
4812;SDS011;2420;51.202;8.698;2022-08-03T02:31:50;6.18;;;3.92;;
4812;SDS011;2420;51.202;8.698;2022-08-03T02:34:19;5.20;;;3.88;;
4812;SDS011;2420;51.202;8.698;2022-08-03T02:36:48;4.88;;;4.28;;
4812;SDS011;2420;51.202;8.698;2022-08-03T02:39:18;4.70;;;4.22;;
4812;SDS011;2420;51.202;8.698;2022-08-03T02:41:47;5.95;;;4.72;;
4812;SDS011;2420;51.202;8.698;2022-08-03T02:44:16;4.60;;;4.20;;
4812;SDS011;2420;51.202;8.698;2022-08-03T02:46:44;4.80;;;4.40;;
4812;SDS011;2420;51.202;8.698;2022-08-03T02:49:12;4.57;;;4.15;;
4812;SDS011;2420;51.202;8.698;2022-08-03T02:51:40;4.45;;;4.05;;
4812;SDS011;2420;51.202;8.698;2022-08-03T02:54:07;4.75;;;3.85;;
4812;SDS011;2420;51.202;8.698;2022-08-03T02:56:34;4.38;;;3.97;;
4812;SDS011;2420;51.202;8.698;2022-08-03T02:59:01;4.38;;;3.97;;
4812;SDS011;2420;51.202;8.698;2022-08-03T03:01:28;5.47;;;4.47;;
4812;SDS011;2420;51.202;8.698;2022-08-03T03:03:55;5.53;;;4.40;;
4812;SDS011;2420;51.202;8.698;2022-08-03T03:06:22;4.30;;;3.90;;
4812;SDS011;2420;51.202;8.698;2022-08-03T03:08:50;5.32;;;3.63;;
4812;SDS011;2420;51.202;8.698;2022-08-03T03:11:17;4.35;;;3.95;;
4812;SDS011;2420;51.202;8.698;2022-08-03T03:13:45;5.03;;;4.18;;
4812;SDS011;2420;51.202;8.698;2022-08-03T03:16:12;3.95;;;3.55;;
4812;SDS011;2420;51.202;8.698;2022-08-03T03:18:39;4.13;;;3.72;;
4812;SDS011;2420;51.202;8.698;2022-08-03T03:21:07;5.00;;;4.10;;
4812;SDS011;2420;51.202;8.698;2022-08-03T03:23:35;4.30;;;3.90;;
4812;SDS011;2420;51.202;8.698;2022-08-03T03:26:02;4.05;;;3.65;;
4812;SDS011;2420;51.202;8.698;2022-08-03T03:28:29;4.53;;;4.10;;
4812;SDS011;2420;51.202;8.698;2022-08-03T03:30:56;4.82;;;4.10;;
4812;SDS011;2420;51.202;8.698;2022-08-03T03:33:22;4.95;;;4.15;;
4812;SDS011;2420;51.202;8.698;2022-08-03T03:35:49;4.45;;;4.05;;
4812;SDS011;2420;51.202;8.698;2022-08-03T03:38:15;4.38;;;3.97;;
4812;SDS011;2420;51.202;8.698;2022-08-03T03:40:41;4.15;;;3.75;;
4812;SDS011;2420;51.202;8.698;2022-08-03T03:43:09;5.10;;;3.80;;
4812;SDS011;2420;51.202;8.698;2022-08-03T03:45:36;4.65;;;3.88;;
4812;SDS011;2420;51.202;8.698;2022-08-03T03:48:05;4.70;;;3.90;;
4812;SDS011;2420;51.202;8.698;2022-08-03T03:50:31;4.50;;;4.10;;
4812;SDS011;2420;51.202;8.698;2022-08-03T03:52:58;4.10;;;3.70;;
4812;SDS011;2420;51.202;8.698;2022-08-03T03:55:24;4.38;;;3.92;;
4812;SDS011;2420;51.202;8.698;2022-08-03T03:57:50;4.40;;;3.90;;
4812;SDS011;2420;51.202;8.698;2022-08-03T04:00:16;4.43;;;4.03;;
4812;SDS011;2420;51.202;8.698;2022-08-03T04:02:43;5.80;;;3.88;;
4812;SDS011;2420;51.202;8.698;2022-08-03T04:05:09;4.85;;;3.97;;
4812;SDS011;2420;51.202;8.698;2022-08-03T04:10:53;4.32;;;3.92;;
4812;SDS011;2420;51.202;8.698;2022-08-03T04:13:39;4.40;;;4.00;;
4812;SDS011;2420;51.202;8.698;2022-08-03T04:16:15;4.50;;;4.10;;
4812;SDS011;2420;51.202;8.698;2022-08-03T04:18:43;5.13;;;4.22;;
4812;SDS011;2420;51.202;8.698;2022-08-03T04:21:12;5.05;;;4.32;;
4812;SDS011;2420;51.202;8.698;2022-08-03T04:23:43;6.25;;;4.30;;
4812;SDS011;2420;51.202;8.698;2022-08-03T04:26:14;5.05;;;4.35;;
4812;SDS011;2420;51.202;8.698;2022-08-03T04:28:43;6.18;;;4.50;;
4812;SDS011;2420;51.202;8.698;2022-08-03T04:31:10;5.35;;;4.85;;
4812;SDS011;2420;51.202;8.698;2022-08-03T04:33:37;4.85;;;4.35;;
4812;SDS011;2420;51.202;8.698;2022-08-03T04:36:06;7.47;;;4.40;;
4812;SDS011;2420;51.202;8.698;2022-08-03T04:38:43;4.82;;;4.22;;
4812;SDS011;2420;51.202;8.698;2022-08-03T04:41:18;5.10;;;4.57;;
4812;SDS011;2420;51.202;8.698;2022-08-03T04:43:47;5.20;;;4.70;;
4812;SDS011;2420;51.202;8.698;2022-08-03T04:46:15;5.18;;;4.68;;
4812;SDS011;2420;51.202;8.698;2022-08-03T04:48:42;5.60;;;5.00;;
4812;SDS011;2420;51.202;8.698;2022-08-03T04:51:09;4.93;;;4.38;;
4812;SDS011;2420;51.202;8.698;2022-08-03T04:53:36;6.43;;;4.60;;
4812;SDS011;2420;51.202;8.698;2022-08-03T04:56:03;4.70;;;4.30;;
4812;SDS011;2420;51.202;8.698;2022-08-03T04:58:29;5.55;;;4.28;;
4812;SDS011;2420;51.202;8.698;2022-08-03T05:00:55;5.30;;;4.80;;
4812;SDS011;2420;51.202;8.698;2022-08-03T05:03:20;5.78;;;4.95;;
4812;SDS011;2420;51.202;8.698;2022-08-03T05:05:46;5.00;;;4.25;;
4812;SDS011;2420;51.202;8.698;2022-08-03T05:08:11;5.05;;;4.55;;
4812;SDS011;2420;51.202;8.698;2022-08-03T05:10:37;5.25;;;4.50;;
4812;SDS011;2420;51.202;8.698;2022-08-03T05:13:02;5.25;;;4.30;;
4812;SDS011;2420;51.202;8.698;2022-08-03T05:15:28;5.28;;;4.20;;
4812;SDS011;2420;51.202;8.698;2022-08-03T05:17:53;5.25;;;4.28;;
4812;SDS011;2420;51.202;8.698;2022-08-03T05:20:19;4.90;;;4.40;;
4812;SDS011;2420;51.202;8.698;2022-08-03T05:22:45;4.97;;;3.97;;
4812;SDS011;2420;51.202;8.698;2022-08-03T05:25:10;7.97;;;4.55;;
4812;SDS011;2420;51.202;8.698;2022-08-03T05:27:36;4.60;;;4.20;;
4812;SDS011;2420;51.202;8.698;2022-08-03T05:30:02;5.28;;;4.78;;
4812;SDS011;2420;51.202;8.698;2022-08-03T05:32:27;5.30;;;4.65;;
4812;SDS011;2420;51.202;8.698;2022-08-03T05:34:53;5.28;;;4.28;;
4812;SDS011;2420;51.202;8.698;2022-08-03T05:37:18;5.05;;;4.55;;
4812;SDS011;2420;51.202;8.698;2022-08-03T05:39:44;7.78;;;5.43;;
4812;SDS011;2420;51.202;8.698;2022-08-03T05:42:10;7.60;;;6.22;;
4812;SDS011;2420;51.202;8.698;2022-08-03T05:44:35;7.15;;;6.25;;
4812;SDS011;2420;51.202;8.698;2022-08-03T05:47:02;7.50;;;6.70;;
4812;SDS011;2420;51.202;8.698;2022-08-03T05:49:29;8.52;;;7.20;;
4812;SDS011;2420;51.202;8.698;2022-08-03T05:51:54;8.25;;;7.07;;
4812;SDS011;2420;51.202;8.698;2022-08-03T05:54:20;8.23;;;7.18;;
4812;SDS011;2420;51.202;8.698;2022-08-03T05:56:45;9.23;;;7.22;;
4812;SDS011;2420;51.202;8.698;2022-08-03T05:59:11;6.47;;;5.88;;
4812;SDS011;2420;51.202;8.698;2022-08-03T06:01:36;8.80;;;6.80;;
4812;SDS011;2420;51.202;8.698;2022-08-03T06:04:02;7.43;;;6.72;;
4812;SDS011;2420;51.202;8.698;2022-08-03T06:06:27;7.13;;;6.43;;
4812;SDS011;2420;51.202;8.698;2022-08-03T06:08:53;7.78;;;7.00;;
4812;SDS011;2420;51.202;8.698;2022-08-03T06:11:18;8.52;;;6.20;;
4812;SDS011;2420;51.202;8.698;2022-08-03T06:13:44;7.53;;;6.82;;
4812;SDS011;2420;51.202;8.698;2022-08-03T06:16:10;7.63;;;6.82;;
4812;SDS011;2420;51.202;8.698;2022-08-03T06:18:36;7.60;;;6.90;;
4812;SDS011;2420;51.202;8.698;2022-08-03T06:21:02;8.82;;;6.40;;
4812;SDS011;2420;51.202;8.698;2022-08-03T06:23:28;7.28;;;6.38;;
4812;SDS011;2420;51.202;8.698;2022-08-03T06:25:54;7.95;;;7.15;;
4812;SDS011;2420;51.202;8.698;2022-08-03T06:28:19;7.53;;;6.72;;
4812;SDS011;2420;51.202;8.698;2022-08-03T06:30:45;7.07;;;6.38;;
4812;SDS011;2420;51.202;8.698;2022-08-03T06:33:11;7.70;;;6.90;;
4812;SDS011;2420;51.202;8.698;2022-08-03T06:35:36;7.43;;;6.60;;
4812;SDS011;2420;51.202;8.698;2022-08-03T06:38:02;7.40;;;5.95;;
4812;SDS011;2420;51.202;8.698;2022-08-03T06:40:28;6.13;;;5.50;;
4812;SDS011;2420;51.202;8.698;2022-08-03T06:42:59;6.68;;;5.40;;
4812;SDS011;2420;51.202;8.698;2022-08-03T06:45:27;8.18;;;5.95;;
4812;SDS011;2420;51.202;8.698;2022-08-03T06:48:00;7.13;;;5.70;;
4812;SDS011;2420;51.202;8.698;2022-08-03T06:50:27;6.30;;;5.65;;
4812;SDS011;2420;51.202;8.698;2022-08-03T06:52:53;6.28;;;5.68;;
4812;SDS011;2420;51.202;8.698;2022-08-03T06:55:18;6.30;;;5.70;;
4812;SDS011;2420;51.202;8.698;2022-08-03T06:57:44;6.53;;;5.93;;
4812;SDS011;2420;51.202;8.698;2022-08-03T07:00:09;8.48;;;5.60;;
4812;SDS011;2420;51.202;8.698;2022-08-03T07:02:36;6.10;;;5.50;;
4812;SDS011;2420;51.202;8.698;2022-08-03T07:05:02;5.70;;;5.20;;
4812;SDS011;2420;51.202;8.698;2022-08-03T07:07:28;6.10;;;5.10;;
4812;SDS011;2420;51.202;8.698;2022-08-03T07:09:54;4.65;;;4.25;;
4812;SDS011;2420;51.202;8.698;2022-08-03T07:12:19;5.85;;;5.03;;
4812;SDS011;2420;51.202;8.698;2022-08-03T07:14:45;7.18;;;5.20;;
4812;SDS011;2420;51.202;8.698;2022-08-03T07:17:10;5.55;;;4.93;;
4812;SDS011;2420;51.202;8.698;2022-08-03T07:19:36;6.20;;;5.10;;
4812;SDS011;2420;51.202;8.698;2022-08-03T07:22:01;5.30;;;4.80;;
4812;SDS011;2420;51.202;8.698;2022-08-03T07:24:27;6.88;;;5.05;;
4812;SDS011;2420;51.202;8.698;2022-08-03T07:26:53;6.07;;;4.57;;
4812;SDS011;2420;51.202;8.698;2022-08-03T07:29:19;4.63;;;4.22;;
4812;SDS011;2420;51.202;8.698;2022-08-03T07:31:44;5.53;;;4.28;;
4812;SDS011;2420;51.202;8.698;2022-08-03T07:34:10;7.55;;;4.68;;
4812;SDS011;2420;51.202;8.698;2022-08-03T07:36:36;5.22;;;4.72;;
4812;SDS011;2420;51.202;8.698;2022-08-03T07:39:01;5.25;;;4.70;;
4812;SDS011;2420;51.202;8.698;2022-08-03T07:41:27;5.07;;;4.57;;
4812;SDS011;2420;51.202;8.698;2022-08-03T07:43:53;8.50;;;4.45;;
4812;SDS011;2420;51.202;8.698;2022-08-03T07:46:19;7.47;;;4.85;;
4812;SDS011;2420;51.202;8.698;2022-08-03T07:48:44;5.28;;;4.75;;
4812;SDS011;2420;51.202;8.698;2022-08-03T07:51:10;7.22;;;4.70;;
4812;SDS011;2420;51.202;8.698;2022-08-03T07:53:35;4.68;;;4.25;;
4812;SDS011;2420;51.202;8.698;2022-08-03T07:56:01;4.97;;;4.47;;
4812;SDS011;2420;51.202;8.698;2022-08-03T07:58:26;4.60;;;4.20;;
4812;SDS011;2420;51.202;8.698;2022-08-03T08:00:52;4.35;;;3.95;;
4812;SDS011;2420;51.202;8.698;2022-08-03T08:03:18;4.75;;;4.15;;
4812;SDS011;2420;51.202;8.698;2022-08-03T08:05:44;4.70;;;4.30;;
4812;SDS011;2420;51.202;8.698;2022-08-03T08:08:09;4.30;;;3.90;;
4812;SDS011;2420;51.202;8.698;2022-08-03T08:10:35;4.95;;;3.80;;
4812;SDS011;2420;51.202;8.698;2022-08-03T08:13:01;4.38;;;4.00;;
4812;SDS011;2420;51.202;8.698;2022-08-03T08:15:27;4.43;;;4.03;;
4812;SDS011;2420;51.202;8.698;2022-08-03T08:17:54;4.72;;;4.30;;
4812;SDS011;2420;51.202;8.698;2022-08-03T08:20:22;4.22;;;3.90;;
4812;SDS011;2420;51.202;8.698;2022-08-03T08:22:49;4.18;;;3.78;;
4812;SDS011;2420;51.202;8.698;2022-08-03T08:25:15;4.45;;;3.95;;
4812;SDS011;2420;51.202;8.698;2022-08-03T08:27:44;3.65;;;3.20;;
4812;SDS011;2420;51.202;8.698;2022-08-03T08:30:12;3.80;;;3.40;;
4812;SDS011;2420;51.202;8.698;2022-08-03T08:32:39;3.53;;;3.10;;
4812;SDS011;2420;51.202;8.698;2022-08-03T08:35:05;3.97;;;3.28;;
4812;SDS011;2420;51.202;8.698;2022-08-03T08:37:32;3.30;;;3.00;;
4812;SDS011;2420;51.202;8.698;2022-08-03T08:39:58;4.40;;;2.90;;
4812;SDS011;2420;51.202;8.698;2022-08-03T08:42:24;5.28;;;3.17;;
4812;SDS011;2420;51.202;8.698;2022-08-03T08:44:50;3.03;;;2.78;;
4812;SDS011;2420;51.202;8.698;2022-08-03T08:47:20;3.35;;;3.05;;
4812;SDS011;2420;51.202;8.698;2022-08-03T08:49:48;5.97;;;2.97;;
4812;SDS011;2420;51.202;8.698;2022-08-03T08:52:18;3.38;;;2.80;;
4812;SDS011;2420;51.202;8.698;2022-08-03T08:54:49;3.13;;;2.83;;
4812;SDS011;2420;51.202;8.698;2022-08-03T08:57:19;3.08;;;2.70;;
4812;SDS011;2420;51.202;8.698;2022-08-03T08:59:50;3.22;;;2.92;;
4812;SDS011;2420;51.202;8.698;2022-08-03T09:02:17;3.80;;;3.00;;
4812;SDS011;2420;51.202;8.698;2022-08-03T09:04:43;3.17;;;2.83;;
4812;SDS011;2420;51.202;8.698;2022-08-03T09:07:09;4.15;;;2.90;;
4812;SDS011;2420;51.202;8.698;2022-08-03T09:09:35;2.80;;;2.60;;
4812;SDS011;2420;51.202;8.698;2022-08-03T09:12:01;2.88;;;2.67;;
4812;SDS011;2420;51.202;8.698;2022-08-03T09:14:26;3.08;;;2.88;;
4812;SDS011;2420;51.202;8.698;2022-08-03T09:16:57;2.80;;;2.60;;
4812;SDS011;2420;51.202;8.698;2022-08-03T09:19:26;2.85;;;2.65;;
4812;SDS011;2420;51.202;8.698;2022-08-03T09:22:12;2.70;;;2.50;;
4812;SDS011;2420;51.202;8.698;2022-08-03T09:24:53;4.13;;;2.70;;
4812;SDS011;2420;51.202;8.698;2022-08-03T09:27:20;2.70;;;2.50;;
4812;SDS011;2420;51.202;8.698;2022-08-03T09:29:49;2.65;;;2.45;;
4812;SDS011;2420;51.202;8.698;2022-08-03T09:32:20;2.63;;;2.42;;
4812;SDS011;2420;51.202;8.698;2022-08-03T09:34:48;4.85;;;2.70;;
4812;SDS011;2420;51.202;8.698;2022-08-03T09:37:15;2.50;;;2.30;;
4812;SDS011;2420;51.202;8.698;2022-08-03T09:39:42;2.85;;;2.60;;
4812;SDS011;2420;51.202;8.698;2022-08-03T09:42:13;2.90;;;2.70;;
4812;SDS011;2420;51.202;8.698;2022-08-03T09:44:44;2.80;;;2.60;;
4812;SDS011;2420;51.202;8.698;2022-08-03T09:47:12;3.78;;;2.78;;
4812;SDS011;2420;51.202;8.698;2022-08-03T09:49:39;3.88;;;2.53;;
4812;SDS011;2420;51.202;8.698;2022-08-03T09:52:13;2.50;;;2.30;;
4812;SDS011;2420;51.202;8.698;2022-08-03T09:54:40;2.60;;;2.40;;
4812;SDS011;2420;51.202;8.698;2022-08-03T09:57:06;5.95;;;2.55;;
4812;SDS011;2420;51.202;8.698;2022-08-03T09:59:33;3.03;;;2.60;;
4812;SDS011;2420;51.202;8.698;2022-08-03T10:01:59;2.85;;;2.65;;
4812;SDS011;2420;51.202;8.698;2022-08-03T10:04:25;2.72;;;2.53;;
4812;SDS011;2420;51.202;8.698;2022-08-03T10:07:02;3.17;;;2.70;;
4812;SDS011;2420;51.202;8.698;2022-08-03T10:09:30;4.18;;;2.47;;
4812;SDS011;2420;51.202;8.698;2022-08-03T10:11:56;2.60;;;2.40;;
4812;SDS011;2420;51.202;8.698;2022-08-03T10:14:23;5.38;;;2.70;;
4812;SDS011;2420;51.202;8.698;2022-08-03T10:16:54;3.75;;;2.80;;
4812;SDS011;2420;51.202;8.698;2022-08-03T10:19:19;2.58;;;2.38;;
4812;SDS011;2420;51.202;8.698;2022-08-03T10:21:52;2.70;;;2.50;;
4812;SDS011;2420;51.202;8.698;2022-08-03T10:24:23;4.25;;;2.60;;
4812;SDS011;2420;51.202;8.698;2022-08-03T10:26:51;3.00;;;2.70;;
4812;SDS011;2420;51.202;8.698;2022-08-03T10:29:23;2.67;;;2.47;;
4812;SDS011;2420;51.202;8.698;2022-08-03T10:31:53;3.15;;;2.50;;
4812;SDS011;2420;51.202;8.698;2022-08-03T10:34:22;2.78;;;2.58;;
4812;SDS011;2420;51.202;8.698;2022-08-03T10:36:50;3.55;;;2.70;;
4812;SDS011;2420;51.202;8.698;2022-08-03T10:39:20;2.50;;;2.30;;
4812;SDS011;2420;51.202;8.698;2022-08-03T10:41:48;2.78;;;2.50;;
4812;SDS011;2420;51.202;8.698;2022-08-03T10:44:16;3.30;;;2.40;;
4812;SDS011;2420;51.202;8.698;2022-08-03T10:46:43;2.70;;;2.50;;
4812;SDS011;2420;51.202;8.698;2022-08-03T10:49:15;3.85;;;2.42;;
4812;SDS011;2420;51.202;8.698;2022-08-03T10:51:46;2.92;;;2.72;;
4812;SDS011;2420;51.202;8.698;2022-08-03T10:54:36;4.28;;;2.60;;
4812;SDS011;2420;51.202;8.698;2022-08-03T10:58:07;2.60;;;2.40;;
4812;SDS011;2420;51.202;8.698;2022-08-03T11:00:23;3.35;;;2.47;;
4812;SDS011;2420;51.202;8.698;2022-08-03T11:05:26;2.47;;;2.20;;
4812;SDS011;2420;51.202;8.698;2022-08-03T11:10:48;2.45;;;2.22;;
4812;SDS011;2420;51.202;8.698;2022-08-03T11:13:15;2.60;;;2.40;;
4812;SDS011;2420;51.202;8.698;2022-08-03T11:15:46;2.42;;;2.20;;
4812;SDS011;2420;51.202;8.698;2022-08-03T11:18:14;2.20;;;2.00;;
4812;SDS011;2420;51.202;8.698;2022-08-03T11:20:48;4.57;;;2.33;;
4812;SDS011;2420;51.202;8.698;2022-08-03T11:23:19;2.58;;;2.38;;
4812;SDS011;2420;51.202;8.698;2022-08-03T11:26:11;3.33;;;2.10;;
4812;SDS011;2420;51.202;8.698;2022-08-03T11:28:42;2.45;;;2.25;;
4812;SDS011;2420;51.202;8.698;2022-08-03T11:34:02;2.50;;;2.30;;
4812;SDS011;2420;51.202;8.698;2022-08-03T11:37:19;2.40;;;2.20;;
4812;SDS011;2420;51.202;8.698;2022-08-03T11:39:40;2.20;;;2.00;;
4812;SDS011;2420;51.202;8.698;2022-08-03T11:47:23;2.38;;;2.17;;
4812;SDS011;2420;51.202;8.698;2022-08-03T11:49:55;3.97;;;2.35;;
4812;SDS011;2420;51.202;8.698;2022-08-03T11:52:23;2.55;;;2.20;;
4812;SDS011;2420;51.202;8.698;2022-08-03T11:54:52;2.53;;;2.33;;
4812;SDS011;2420;51.202;8.698;2022-08-03T11:57:28;3.30;;;2.50;;
4812;SDS011;2420;51.202;8.698;2022-08-03T11:59:58;2.42;;;2.22;;
4812;SDS011;2420;51.202;8.698;2022-08-03T12:02:23;2.97;;;2.25;;
4812;SDS011;2420;51.202;8.698;2022-08-03T12:07:22;2.75;;;2.42;;
4812;SDS011;2420;51.202;8.698;2022-08-03T12:10:08;3.58;;;2.33;;
4812;SDS011;2420;51.202;8.698;2022-08-03T12:12:35;2.22;;;2.05;;
4812;SDS011;2420;51.202;8.698;2022-08-03T12:15:02;2.50;;;2.30;;
4812;SDS011;2420;51.202;8.698;2022-08-03T12:17:35;2.70;;;2.50;;
4812;SDS011;2420;51.202;8.698;2022-08-03T12:20:02;2.63;;;2.42;;
4812;SDS011;2420;51.202;8.698;2022-08-03T12:22:33;2.60;;;2.40;;
4812;SDS011;2420;51.202;8.698;2022-08-03T12:25:01;2.80;;;2.38;;
4812;SDS011;2420;51.202;8.698;2022-08-03T12:27:31;2.50;;;2.30;;
4812;SDS011;2420;51.202;8.698;2022-08-03T12:29:57;2.88;;;2.55;;
4812;SDS011;2420;51.202;8.698;2022-08-03T12:32:24;3.25;;;2.28;;
4812;SDS011;2420;51.202;8.698;2022-08-03T12:34:50;2.70;;;2.50;;
4812;SDS011;2420;51.202;8.698;2022-08-03T12:37:19;2.40;;;2.20;;
4812;SDS011;2420;51.202;8.698;2022-08-03T12:39:49;2.70;;;2.50;;
4812;SDS011;2420;51.202;8.698;2022-08-03T12:42:19;2.70;;;2.30;;
4812;SDS011;2420;51.202;8.698;2022-08-03T12:44:44;2.70;;;2.33;;
4812;SDS011;2420;51.202;8.698;2022-08-03T12:47:10;2.60;;;2.40;;
4812;SDS011;2420;51.202;8.698;2022-08-03T12:52:10;2.55;;;2.35;;
4812;SDS011;2420;51.202;8.698;2022-08-03T12:54:36;2.20;;;2.10;;
4812;SDS011;2420;51.202;8.698;2022-08-03T12:57:03;2.97;;;2.60;;
4812;SDS011;2420;51.202;8.698;2022-08-03T12:59:29;2.78;;;2.58;;
4812;SDS011;2420;51.202;8.698;2022-08-03T13:01:57;2.40;;;2.20;;
4812;SDS011;2420;51.202;8.698;2022-08-03T13:07:05;4.03;;;2.70;;
4812;SDS011;2420;51.202;8.698;2022-08-03T13:09:43;2.38;;;2.17;;
4812;SDS011;2420;51.202;8.698;2022-08-03T13:12:12;2.58;;;2.38;;
4812;SDS011;2420;51.202;8.698;2022-08-03T13:14:40;2.90;;;2.65;;
4812;SDS011;2420;51.202;8.698;2022-08-03T13:17:07;3.85;;;2.50;;
4812;SDS011;2420;51.202;8.698;2022-08-03T13:19:33;4.28;;;2.53;;
4812;SDS011;2420;51.202;8.698;2022-08-03T13:22:00;3.00;;;2.40;;
4812;SDS011;2420;51.202;8.698;2022-08-03T13:24:36;3.15;;;2.58;;
4812;SDS011;2420;51.202;8.698;2022-08-03T13:27:04;4.60;;;2.90;;
4812;SDS011;2420;51.202;8.698;2022-08-03T13:29:31;3.97;;;2.40;;
4812;SDS011;2420;51.202;8.698;2022-08-03T13:31:57;3.88;;;2.72;;
4812;SDS011;2420;51.202;8.698;2022-08-03T13:34:23;2.95;;;2.55;;
4812;SDS011;2420;51.202;8.698;2022-08-03T13:36:48;2.60;;;2.40;;
4812;SDS011;2420;51.202;8.698;2022-08-03T13:39:14;3.03;;;2.50;;
4812;SDS011;2420;51.202;8.698;2022-08-03T13:41:40;3.13;;;2.60;;
4812;SDS011;2420;51.202;8.698;2022-08-03T13:44:05;2.55;;;2.35;;
4812;SDS011;2420;51.202;8.698;2022-08-03T13:46:31;2.95;;;2.58;;
4812;SDS011;2420;51.202;8.698;2022-08-03T13:48:56;3.00;;;2.70;;
4812;SDS011;2420;51.202;8.698;2022-08-03T13:51:22;2.63;;;2.42;;
4812;SDS011;2420;51.202;8.698;2022-08-03T13:53:48;2.65;;;2.45;;
4812;SDS011;2420;51.202;8.698;2022-08-03T13:56:14;2.70;;;2.50;;
4812;SDS011;2420;51.202;8.698;2022-08-03T13:58:40;4.40;;;2.83;;
4812;SDS011;2420;51.202;8.698;2022-08-03T14:01:05;2.67;;;2.47;;
4812;SDS011;2420;51.202;8.698;2022-08-03T14:03:31;2.83;;;2.60;;
4812;SDS011;2420;51.202;8.698;2022-08-03T14:05:56;3.83;;;2.50;;
4812;SDS011;2420;51.202;8.698;2022-08-03T14:08:22;3.15;;;2.38;;
4812;SDS011;2420;51.202;8.698;2022-08-03T14:10:47;2.50;;;2.30;;
4812;SDS011;2420;51.202;8.698;2022-08-03T14:13:13;4.20;;;2.60;;
4812;SDS011;2420;51.202;8.698;2022-08-03T14:15:39;3.88;;;2.70;;
4812;SDS011;2420;51.202;8.698;2022-08-03T14:18:06;3.67;;;2.58;;
4812;SDS011;2420;51.202;8.698;2022-08-03T14:20:32;2.75;;;2.55;;
4812;SDS011;2420;51.202;8.698;2022-08-03T14:22:58;2.47;;;2.28;;
4812;SDS011;2420;51.202;8.698;2022-08-03T14:25:23;3.30;;;2.60;;
4812;SDS011;2420;51.202;8.698;2022-08-03T14:27:49;2.60;;;2.40;;
4812;SDS011;2420;51.202;8.698;2022-08-03T14:30:14;2.72;;;2.30;;
4812;SDS011;2420;51.202;8.698;2022-08-03T14:32:40;2.72;;;2.53;;
4812;SDS011;2420;51.202;8.698;2022-08-03T14:35:06;2.65;;;2.45;;
4812;SDS011;2420;51.202;8.698;2022-08-03T14:37:32;2.70;;;2.50;;
4812;SDS011;2420;51.202;8.698;2022-08-03T14:39:58;2.13;;;2.03;;
4812;SDS011;2420;51.202;8.698;2022-08-03T14:42:24;3.08;;;2.47;;
4812;SDS011;2420;51.202;8.698;2022-08-03T14:44:49;2.80;;;2.42;;
4812;SDS011;2420;51.202;8.698;2022-08-03T14:47:15;2.00;;;1.90;;
4812;SDS011;2420;51.202;8.698;2022-08-03T14:49:40;2.50;;;2.30;;
4812;SDS011;2420;51.202;8.698;2022-08-03T14:52:06;2.45;;;2.25;;
4812;SDS011;2420;51.202;8.698;2022-08-03T14:54:32;2.10;;;2.00;;
4812;SDS011;2420;51.202;8.698;2022-08-03T14:56:57;2.60;;;2.40;;
4812;SDS011;2420;51.202;8.698;2022-08-03T14:59:24;3.17;;;2.13;;
4812;SDS011;2420;51.202;8.698;2022-08-03T15:01:50;2.40;;;2.20;;
4812;SDS011;2420;51.202;8.698;2022-08-03T15:04:15;2.15;;;2.05;;
4812;SDS011;2420;51.202;8.698;2022-08-03T15:06:41;2.50;;;2.30;;
4812;SDS011;2420;51.202;8.698;2022-08-03T15:09:07;2.75;;;1.98;;
4812;SDS011;2420;51.202;8.698;2022-08-03T15:11:33;2.10;;;1.98;;
4812;SDS011;2420;51.202;8.698;2022-08-03T15:13:59;3.08;;;2.10;;
4812;SDS011;2420;51.202;8.698;2022-08-03T15:16:25;2.60;;;2.22;;
4812;SDS011;2420;51.202;8.698;2022-08-03T15:18:50;3.10;;;2.20;;
4812;SDS011;2420;51.202;8.698;2022-08-03T15:21:16;2.22;;;2.10;;
4812;SDS011;2420;51.202;8.698;2022-08-03T15:23:41;2.25;;;2.05;;
4812;SDS011;2420;51.202;8.698;2022-08-03T15:26:07;2.40;;;2.20;;
4812;SDS011;2420;51.202;8.698;2022-08-03T15:28:32;2.58;;;2.10;;
4812;SDS011;2420;51.202;8.698;2022-08-03T15:30:58;3.00;;;2.20;;
4812;SDS011;2420;51.202;8.698;2022-08-03T15:33:24;2.10;;;2.00;;
4812;SDS011;2420;51.202;8.698;2022-08-03T15:35:50;4.28;;;2.08;;
4812;SDS011;2420;51.202;8.698;2022-08-03T15:38:17;4.07;;;1.98;;
4812;SDS011;2420;51.202;8.698;2022-08-03T15:40:43;2.33;;;2.13;;
4812;SDS011;2420;51.202;8.698;2022-08-03T15:43:08;2.20;;;2.00;;
4812;SDS011;2420;51.202;8.698;2022-08-03T15:45:34;2.30;;;2.10;;
4812;SDS011;2420;51.202;8.698;2022-08-03T15:48:00;2.40;;;2.20;;
4812;SDS011;2420;51.202;8.698;2022-08-03T15:50:26;2.92;;;2.10;;
4812;SDS011;2420;51.202;8.698;2022-08-03T15:52:51;2.35;;;2.15;;
4812;SDS011;2420;51.202;8.698;2022-08-03T15:55:19;2.92;;;2.28;;
4812;SDS011;2420;51.202;8.698;2022-08-03T15:57:48;2.40;;;2.20;;
4812;SDS011;2420;51.202;8.698;2022-08-03T16:00:13;2.15;;;2.05;;